Fontenelle, Wyoming
Current Conditions -  °F | °C
As of 12:15 PM on Friday 24 Oct 2014 (Local Time) from KEMM Reporting Station
Clear Clear  
Wind Chill: 63°   Ceiling: Unl
Heat Index: 63°   Visibility: 10mi
Dew Point: 27°   Wind: 18mph
Humidity: 26%   Direction: 260°W
Pressure: 30.3"   Gusts: 24mph
Location:  41.8294°N, 110.31°W
Report Text: KEMM 241815Z AUTO 26016G21KT 10SM CLR 17/M03 A3030 RMK AO2
Loading
Personal Weather Stations






























Interactive Weather Map
Tropical Storm Tracking
New forecast layout! Learn more

10-Day Weather Forecast

Advertisements
Track Severe Weather on mobile